createdAt,value
2018-08-06T00:00:35.254Z,8.30
2018-08-06T00:01:35.214Z,8.00
2018-08-06T00:02:35.146Z,8.50
2018-08-06T00:03:35.081Z,8.70
2018-08-06T00:04:35.017Z,8.50
2018-08-06T00:05:34.963Z,8.60
2018-08-06T00:06:34.902Z,8.40
2018-08-06T00:07:34.848Z,8.60
2018-08-06T00:08:34.800Z,8.10
2018-08-06T00:09:34.728Z,8.50
2018-08-06T00:10:34.670Z,8.50
2018-08-06T00:11:34.599Z,8.80
2018-08-06T00:12:34.536Z,8.90
2018-08-06T00:13:34.491Z,8.50
2018-08-06T00:14:34.427Z,8.50
2018-08-06T00:15:34.382Z,8.40
2018-08-06T00:16:34.324Z,8.30
2018-08-06T00:17:34.250Z,8.30
2018-08-06T00:18:34.189Z,8.40
2018-08-06T00:19:34.124Z,8.30
2018-08-06T00:20:34.072Z,8.10
2018-08-06T00:21:34.010Z,8.00
2018-08-06T00:22:33.964Z,7.70
2018-08-06T00:23:33.887Z,7.80
2018-08-06T00:24:33.820Z,8.10
2018-08-06T00:25:33.768Z,8.10
2018-08-06T00:26:33.713Z,8.30
2018-08-06T00:27:33.648Z,7.80
2018-08-06T00:28:33.583Z,7.60
2018-08-06T00:29:33.579Z,7.80
2018-08-06T00:30:33.471Z,7.40
2018-08-06T00:31:33.414Z,7.50
2018-08-06T00:32:33.380Z,7.90
2018-08-06T00:33:33.283Z,7.80
2018-08-06T00:34:33.225Z,7.80
2018-08-06T00:35:33.172Z,7.70
2018-08-06T00:36:33.118Z,7.80
2018-08-06T00:37:33.056Z,7.70
2018-08-06T00:38:33.011Z,7.80
2018-08-06T00:39:32.933Z,7.80
2018-08-06T00:40:32.873Z,8.10
2018-08-06T00:41:32.815Z,8.50
2018-08-06T00:42:32.744Z,8.50
2018-08-06T00:43:32.694Z,8.20
2018-08-06T00:44:32.636Z,8.40
2018-08-06T00:45:32.619Z,8.10
2018-08-06T00:46:32.521Z,8.00
2018-08-06T00:47:32.446Z,7.90
2018-08-06T00:48:32.385Z,7.80
2018-08-06T00:49:32.338Z,7.70
2018-08-06T00:50:32.285Z,7.60
2018-08-06T00:51:32.217Z,9.70
2018-08-06T00:52:32.152Z,10.50
2018-08-06T00:53:32.097Z,8.40
2018-08-06T00:54:32.040Z,7.90
2018-08-06T00:55:31.994Z,7.80
2018-08-06T00:56:31.920Z,7.70
2018-08-06T00:57:31.867Z,7.30
2018-08-06T00:58:31.821Z,7.50
2018-08-06T00:59:31.734Z,7.20
2018-08-06T01:00:31.675Z,7.20
2018-08-06T01:01:31.621Z,7.60
2018-08-06T01:02:31.560Z,7.10
2018-08-06T01:03:31.498Z,7.60
2018-08-06T01:04:31.442Z,7.50
2018-08-06T01:05:31.379Z,7.50
2018-08-06T01:06:31.323Z,7.30
2018-08-06T01:07:31.272Z,7.30
2018-08-06T01:08:31.206Z,7.50
2018-08-06T01:09:31.148Z,7.20
2018-08-06T01:10:31.092Z,7.90
2018-08-06T01:11:31.021Z,7.60
2018-08-06T01:12:30.956Z,7.80
2018-08-06T01:13:30.897Z,7.30
2018-08-06T01:14:30.842Z,7.50
2018-08-06T01:15:30.801Z,7.30
2018-08-06T01:16:30.729Z,7.10
2018-08-06T01:17:30.666Z,7.50
2018-08-06T01:18:30.611Z,7.30
2018-08-06T01:19:30.544Z,7.50
2018-08-06T01:20:30.485Z,7.40
2018-08-06T01:21:30.435Z,7.50
2018-08-06T01:22:30.369Z,7.50
2018-08-06T01:23:30.308Z,7.70
2018-08-06T01:24:30.252Z,7.40
2018-08-06T01:25:30.188Z,7.60
2018-08-06T01:26:30.128Z,7.40
2018-08-06T01:27:30.078Z,7.90
2018-08-06T01:28:30.013Z,7.70
2018-08-06T01:29:29.954Z,8.00
2018-08-06T01:30:29.887Z,7.80
2018-08-06T01:31:29.839Z,7.90
2018-08-06T01:32:29.777Z,7.40
2018-08-06T01:33:29.717Z,7.70
2018-08-06T01:34:29.655Z,7.60
2018-08-06T01:35:29.594Z,7.80
2018-08-06T01:36:29.530Z,7.80
2018-08-06T01:37:29.480Z,8.00
2018-08-06T01:38:29.421Z,7.70
2018-08-06T01:39:29.351Z,8.10
2018-08-06T01:40:29.289Z,8.30
2018-08-06T01:41:29.238Z,7.40
2018-08-06T01:42:29.181Z,7.90
2018-08-06T01:43:29.118Z,8.70
2018-08-06T01:44:29.071Z,8.60
2018-08-06T01:45:28.999Z,8.90
2018-08-06T01:46:28.947Z,8.30
2018-08-06T01:47:28.875Z,8.10
2018-08-06T01:48:28.816Z,8.50
2018-08-06T01:49:28.754Z,8.10
2018-08-06T01:50:28.697Z,8.10
2018-08-06T01:51:28.667Z,8.00
2018-08-06T01:52:28.583Z,7.90
2018-08-06T01:53:28.525Z,8.00
2018-08-06T01:54:28.461Z,8.10
2018-08-06T01:55:28.407Z,8.10
2018-08-06T01:56:28.360Z,8.10
2018-08-06T01:57:28.295Z,8.50
2018-08-06T01:58:28.229Z,9.10
2018-08-06T01:59:28.166Z,8.30
2018-08-06T02:00:28.103Z,8.80
2018-08-06T02:01:28.040Z,8.50
2018-08-06T02:02:27.988Z,8.00
2018-08-06T02:03:27.932Z,8.40
2018-08-06T02:04:27.884Z,8.30
2018-08-06T02:05:27.812Z,8.10
2018-08-06T02:06:27.749Z,7.90
2018-08-06T02:07:27.683Z,8.00
2018-08-06T02:08:27.630Z,7.90
2018-08-06T02:09:27.574Z,8.00
2018-08-06T02:10:27.525Z,8.00
2018-08-06T02:11:27.445Z,8.10
2018-08-06T02:12:27.393Z,7.70
2018-08-06T02:13:27.330Z,7.90
2018-08-06T02:14:27.272Z,8.30
2018-08-06T02:15:27.209Z,8.10
2018-08-06T02:16:27.154Z,7.70
2018-08-06T02:17:27.124Z,8.50
2018-08-06T02:18:27.034Z,7.90
2018-08-06T02:19:26.965Z,7.70
2018-08-06T02:20:26.909Z,8.00
2018-08-06T02:21:26.850Z,8.20
2018-08-06T02:22:26.787Z,7.50
2018-08-06T02:23:26.738Z,8.00
2018-08-06T02:24:26.672Z,7.90
2018-08-06T02:25:26.613Z,8.10
2018-08-06T02:26:26.551Z,8.10
2018-08-06T02:27:26.492Z,7.80
2018-08-06T02:28:26.449Z,8.20
2018-08-06T02:29:26.391Z,8.30
2018-08-06T02:30:26.320Z,8.10
2018-08-06T02:31:26.248Z,8.20
2018-08-06T02:32:26.220Z,7.70
2018-08-06T02:33:26.162Z,7.70
2018-08-06T02:34:26.106Z,8.30
2018-08-06T02:35:26.017Z,8.50
2018-08-06T02:36:25.953Z,8.20
2018-08-06T02:37:25.891Z,8.00
2018-08-06T02:38:25.841Z,8.60
2018-08-06T02:39:25.796Z,8.50
2018-08-06T02:40:25.750Z,8.30
2018-08-06T02:41:25.711Z,8.50
2018-08-06T02:42:25.588Z,8.50
2018-08-06T02:43:25.554Z,8.30
2018-08-06T02:44:25.487Z,9.50
2018-08-06T02:45:25.418Z,8.50
2018-08-06T02:46:25.364Z,8.30
2018-08-06T02:47:25.295Z,8.40
2018-08-06T02:48:25.239Z,8.90
2018-08-06T02:49:25.175Z,8.40
2018-08-06T02:50:25.112Z,8.20
2018-08-06T02:51:25.064Z,8.80
2018-08-06T02:52:25.018Z,8.50
2018-08-06T02:53:24.959Z,8.40
2018-08-06T02:54:24.886Z,8.30
2018-08-06T02:55:24.814Z,8.30
2018-08-06T02:56:24.757Z,7.50
2018-08-06T02:57:24.710Z,8.50
2018-08-06T02:58:24.656Z,8.60
2018-08-06T02:59:24.577Z,8.10
2018-08-06T03:00:24.516Z,8.00
2018-08-06T03:01:24.461Z,7.50
2018-08-06T03:02:24.397Z,7.80
2018-08-06T03:03:24.344Z,8.10
2018-08-06T03:04:24.283Z,8.00
2018-08-06T03:05:24.221Z,8.20
2018-08-06T03:06:24.165Z,8.20
2018-08-06T03:07:24.104Z,8.10
2018-08-06T03:08:24.043Z,7.60
2018-08-06T03:09:23.996Z,7.50
2018-08-06T03:10:23.923Z,7.80
2018-08-06T03:11:23.857Z,7.60
2018-08-06T03:12:23.808Z,7.70
2018-08-06T03:13:23.744Z,8.00
2018-08-06T03:14:23.692Z,7.80
2018-08-06T03:15:23.618Z,8.00
2018-08-06T03:16:23.557Z,7.60
2018-08-06T03:17:23.495Z,7.70
2018-08-06T03:18:23.432Z,7.60
2018-08-06T03:19:23.396Z,7.70
2018-08-06T03:20:23.327Z,7.80
2018-08-06T03:21:23.265Z,8.10
2018-08-06T03:22:23.200Z,8.00
2018-08-06T03:23:23.139Z,7.80
2018-08-06T03:24:23.076Z,7.90
2018-08-06T03:25:23.012Z,8.00
2018-08-06T03:26:22.958Z,8.00
2018-08-06T03:27:22.902Z,8.00
2018-08-06T03:28:22.841Z,7.90
2018-08-06T03:29:22.776Z,8.00
2018-08-06T03:30:22.714Z,7.80
2018-08-06T03:31:22.666Z,8.20
2018-08-06T03:32:22.605Z,8.50
2018-08-06T03:33:22.541Z,7.90
2018-08-06T03:34:22.485Z,8.40
2018-08-06T03:35:22.417Z,7.60
2018-08-06T03:36:22.359Z,8.00
2018-08-06T03:37:22.317Z,8.00
2018-08-06T03:38:22.239Z,8.30
2018-08-06T03:39:22.170Z,8.10
2018-08-06T03:40:22.157Z,8.50
2018-08-06T03:41:22.057Z,8.50
2018-08-06T03:42:21.994Z,8.60
2018-08-06T03:43:21.937Z,8.30
2018-08-06T03:44:21.884Z,8.20
2018-08-06T03:45:21.815Z,8.50
2018-08-06T03:46:21.759Z,9.00
2018-08-06T03:47:21.707Z,10.00
2018-08-06T03:48:21.644Z,9.90
2018-08-06T03:49:21.593Z,10.70
2018-08-06T03:50:21.508Z,10.90
2018-08-06T03:51:21.453Z,10.50
2018-08-06T03:52:21.389Z,10.60
2018-08-06T03:53:21.339Z,10.60
2018-08-06T03:54:21.290Z,10.20
2018-08-06T03:55:21.213Z,9.80
2018-08-06T03:56:21.179Z,9.70
2018-08-06T03:57:21.093Z,10.00
2018-08-06T03:58:21.024Z,10.00
2018-08-06T03:59:20.965Z,9.90
2018-08-06T04:00:20.917Z,10.50
2018-08-06T04:01:20.853Z,10.20
2018-08-06T04:02:20.786Z,10.10
2018-08-06T04:03:20.722Z,9.90
2018-08-06T04:04:20.667Z,10.60
2018-08-06T04:05:20.608Z,9.70
2018-08-06T04:06:20.555Z,10.50
2018-08-06T04:07:20.489Z,10.10
2018-08-06T04:08:20.429Z,9.90
2018-08-06T04:09:20.365Z,10.00
2018-08-06T04:10:20.308Z,9.90
2018-08-06T04:11:20.230Z,10.30
2018-08-06T04:12:20.180Z,10.00
2018-08-06T04:13:20.113Z,10.10
2018-08-06T04:14:20.088Z,10.10
2018-08-06T04:15:20.004Z,10.10
2018-08-06T04:16:19.939Z,10.10
2018-08-06T04:17:19.871Z,9.70
2018-08-06T04:18:19.816Z,10.60
2018-08-06T04:19:19.756Z,10.60
2018-08-06T04:20:19.715Z,10.20
2018-08-06T04:21:19.638Z,10.20
2018-08-06T04:22:19.563Z,11.20
2018-08-06T04:23:19.514Z,11.00
2018-08-06T04:24:19.448Z,11.20
2018-08-06T04:25:19.386Z,11.10
2018-08-06T04:26:19.332Z,11.20
2018-08-06T04:27:19.289Z,11.10
2018-08-06T04:28:19.228Z,11.00
2018-08-06T04:29:19.161Z,11.60
2018-08-06T04:30:19.076Z,11.30
2018-08-06T04:31:19.017Z,11.50
2018-08-06T04:32:18.966Z,11.90
2018-08-06T04:33:18.903Z,11.60
2018-08-06T04:34:18.837Z,11.50
2018-08-06T04:35:18.775Z,11.60
2018-08-06T04:36:18.721Z,11.60
2018-08-06T04:37:18.655Z,11.10
2018-08-06T04:38:18.598Z,12.00
2018-08-06T04:39:18.549Z,11.00
2018-08-06T04:40:18.465Z,11.50
2018-08-06T04:41:18.405Z,11.30
2018-08-06T04:42:18.353Z,10.50
2018-08-06T04:43:18.290Z,10.70
2018-08-06T04:44:18.230Z,10.80
2018-08-06T04:45:18.176Z,10.60
2018-08-06T04:46:18.103Z,10.60
2018-08-06T04:47:18.041Z,10.30
2018-08-06T04:48:17.982Z,10.80
2018-08-06T04:49:17.924Z,10.60
2018-08-06T04:50:17.852Z,10.20
2018-08-06T04:51:17.792Z,10.10
2018-08-06T04:52:17.737Z,10.10
2018-08-06T04:53:17.675Z,10.50
2018-08-06T04:54:17.630Z,10.30
2018-08-06T04:55:17.554Z,9.90
2018-08-06T04:56:17.496Z,10.20
2018-08-06T04:57:17.439Z,9.80
2018-08-06T04:58:17.367Z,10.30
2018-08-06T04:59:17.309Z,10.10
2018-08-06T05:00:17.244Z,10.10
2018-08-06T05:01:17.193Z,9.90
2018-08-06T05:02:17.132Z,9.80
2018-08-06T05:03:17.096Z,10.20
2018-08-06T05:04:16.999Z,10.70
2018-08-06T05:05:16.934Z,9.80
2018-08-06T05:06:16.885Z,10.00
2018-08-06T05:08:16.780Z,10.10
2018-08-06T05:09:16.720Z,10.10
2018-08-06T05:10:16.630Z,10.20
2018-08-06T05:11:16.578Z,10.40
2018-08-06T05:12:16.513Z,10.00
2018-08-06T05:13:16.448Z,10.60
2018-08-06T05:14:16.397Z,10.60
2018-08-06T05:15:16.352Z,9.90
2018-08-06T05:16:16.271Z,10.50
2018-08-06T05:17:16.229Z,10.90
2018-08-06T05:18:16.148Z,10.50
2018-08-06T05:19:16.091Z,10.70
2018-08-06T05:20:16.035Z,10.50
2018-08-06T05:21:15.976Z,10.90
2018-08-06T05:22:15.898Z,11.20
2018-08-06T05:23:15.836Z,11.20
2018-08-06T05:24:15.779Z,11.30
2018-08-06T05:25:15.721Z,11.10
2018-08-06T05:26:15.665Z,11.20
2018-08-06T05:27:15.619Z,11.20
2018-08-06T05:28:15.547Z,11.30
2018-08-06T05:29:15.486Z,11.40
2018-08-06T05:30:15.413Z,11.20
2018-08-06T05:31:15.376Z,11.40
2018-08-06T05:32:15.295Z,11.00
2018-08-06T05:33:15.233Z,10.90
2018-08-06T05:34:15.199Z,11.10
2018-08-06T05:35:15.122Z,10.70
2018-08-06T05:36:15.056Z,11.10
2018-08-06T05:37:14.986Z,11.30
2018-08-06T05:38:14.938Z,11.00
2018-08-06T05:39:14.894Z,10.70
2018-08-06T05:40:14.815Z,11.00
2018-08-06T05:41:14.760Z,10.80
2018-08-06T05:42:14.682Z,11.80
2018-08-06T05:43:14.620Z,11.50
2018-08-06T05:44:14.570Z,11.20
2018-08-06T05:45:14.512Z,11.40
2018-08-06T05:46:14.448Z,11.20
2018-08-06T05:47:14.388Z,11.20
2018-08-06T05:48:14.354Z,11.10
2018-08-06T05:49:14.265Z,10.70
2018-08-06T05:50:14.219Z,10.90
2018-08-06T05:51:14.144Z,10.60
2018-08-06T05:52:14.080Z,10.90
2018-08-06T05:53:14.030Z,10.70
2018-08-06T05:54:13.967Z,10.60
2018-08-06T05:55:13.905Z,10.70
2018-08-06T05:56:13.848Z,10.00
2018-08-06T05:57:13.787Z,9.90
2018-08-06T05:58:13.747Z,9.80
2018-08-06T05:59:13.661Z,10.20
2018-08-06T06:00:13.593Z,9.80
2018-08-06T06:01:13.548Z,9.90
2018-08-06T06:02:13.491Z,9.70
2018-08-06T06:03:13.460Z,9.70
2018-08-06T06:04:13.355Z,9.40
2018-08-06T06:05:13.288Z,9.50
2018-08-06T06:06:13.227Z,9.60
2018-08-06T06:07:13.168Z,9.80
2018-08-06T06:08:13.104Z,10.10
2018-08-06T06:09:13.042Z,9.70
2018-08-06T06:10:12.994Z,9.70
2018-08-06T06:11:12.932Z,9.10
2018-08-06T06:12:12.870Z,8.80
2018-08-06T06:13:12.811Z,9.30
2018-08-06T06:14:12.742Z,9.00
2018-08-06T06:15:12.716Z,8.80
2018-08-06T06:16:12.638Z,9.10
2018-08-06T06:17:12.561Z,8.50
2018-08-06T06:18:12.506Z,9.20
2018-08-06T06:19:12.486Z,8.90
2018-08-06T06:20:12.383Z,8.60
2018-08-06T06:21:12.332Z,8.50
2018-08-06T06:22:12.259Z,8.60
2018-08-06T06:23:12.200Z,8.70
2018-08-06T06:24:12.154Z,8.50
2018-08-06T06:25:12.089Z,8.40
2018-08-06T06:26:12.024Z,8.80
2018-08-06T06:27:11.958Z,8.70
2018-08-06T06:28:11.903Z,8.90
2018-08-06T06:29:11.863Z,8.70
2018-08-06T06:30:11.786Z,8.70
2018-08-06T06:31:11.733Z,9.00
2018-08-06T06:32:11.666Z,8.40
2018-08-06T06:33:11.609Z,8.50
2018-08-06T06:34:11.545Z,8.10
2018-08-06T06:35:11.496Z,8.60
2018-08-06T06:36:11.426Z,8.10
2018-08-06T06:37:11.393Z,8.30
2018-08-06T06:38:11.335Z,8.40
2018-08-06T06:39:11.273Z,8.30
2018-08-06T06:40:11.196Z,8.50
2018-08-06T06:41:11.123Z,8.30
2018-08-06T06:42:11.073Z,7.90
2018-08-06T06:43:11.073Z,7.60
2018-08-06T06:44:10.961Z,8.40
2018-08-06T06:45:10.900Z,8.40
2018-08-06T06:46:10.838Z,8.10
2018-08-06T06:47:10.780Z,8.50
2018-08-06T06:48:10.718Z,8.20
2018-08-06T06:49:10.666Z,8.10
2018-08-06T06:50:10.622Z,8.30
2018-08-06T06:51:10.531Z,7.70
2018-08-06T06:52:10.482Z,7.90
2018-08-06T06:53:10.417Z,8.00
2018-08-06T06:54:10.363Z,7.80
2018-08-06T06:55:10.314Z,7.20
2018-08-06T06:56:10.298Z,8.10
2018-08-06T06:57:10.183Z,7.80
2018-08-06T06:58:10.131Z,8.00
2018-08-06T06:59:10.061Z,7.50
2018-08-06T07:00:10.013Z,8.10
2018-08-06T07:01:09.955Z,8.00
2018-08-06T07:02:09.885Z,8.00
2018-08-06T07:03:09.822Z,8.20
2018-08-06T07:04:09.764Z,8.30
2018-08-06T07:05:09.707Z,7.90
2018-08-06T07:06:09.654Z,7.50
2018-08-06T07:07:09.593Z,7.70
2018-08-06T07:08:09.540Z,8.20
2018-08-06T07:09:09.479Z,8.10
2018-08-06T07:10:09.413Z,8.50
2018-08-06T07:11:09.368Z,8.50
2018-08-06T07:12:09.309Z,8.50
2018-08-06T07:13:09.256Z,8.30
2018-08-06T07:14:09.335Z,8.60
2018-08-06T07:15:09.137Z,8.60
2018-08-06T07:16:09.077Z,7.90
2018-08-06T07:17:09.031Z,8.20
2018-08-06T07:18:08.958Z,8.60
2018-08-06T07:19:08.895Z,8.90
2018-08-06T07:20:08.836Z,8.30
2018-08-06T07:21:08.785Z,8.00
2018-08-06T07:22:08.732Z,8.00
2018-08-06T07:23:08.670Z,8.00
2018-08-06T07:24:08.611Z,8.20
2018-08-06T07:25:08.558Z,8.20
2018-08-06T07:26:08.549Z,8.70
2018-08-06T07:27:08.437Z,8.80
2018-08-06T07:28:08.437Z,8.50
2018-08-06T07:29:08.317Z,8.10
2018-08-06T07:30:08.270Z,8.70
2018-08-06T07:31:08.208Z,7.90
2018-08-06T07:32:08.154Z,8.30
2018-08-06T07:33:08.078Z,8.50
2018-08-06T07:34:08.030Z,8.20
2018-08-06T07:35:07.972Z,8.10
2018-08-06T07:36:07.916Z,8.50
2018-08-06T07:37:07.846Z,8.50
2018-08-06T07:38:07.786Z,8.40
2018-08-06T07:39:07.738Z,8.50
2018-08-06T07:40:07.679Z,8.60
2018-08-06T07:41:07.625Z,8.70
2018-08-06T07:42:07.565Z,8.70
2018-08-06T07:43:07.521Z,8.50
2018-08-06T07:44:07.437Z,8.90
2018-08-06T07:45:07.392Z,8.90
2018-08-06T07:46:07.323Z,8.80
2018-08-06T07:47:07.348Z,9.50
2018-08-06T07:48:07.208Z,8.60
2018-08-06T07:49:07.155Z,9.10
2018-08-06T07:50:07.081Z,8.60
2018-08-06T07:51:07.019Z,8.40
2018-08-06T07:52:06.980Z,8.10
2018-08-06T07:53:06.910Z,7.80
2018-08-06T07:54:06.849Z,8.60
2018-08-06T07:55:06.828Z,8.60
2018-08-06T07:56:06.750Z,8.50
2018-08-06T07:57:06.688Z,8.30
2018-08-06T07:58:06.626Z,8.20
2018-08-06T07:59:06.562Z,8.60
2018-08-06T08:00:06.507Z,8.30
2018-08-06T08:01:06.453Z,8.40
2018-08-06T08:02:06.391Z,8.30
2018-08-06T08:03:06.332Z,8.10
2018-08-06T08:04:06.274Z,8.50
2018-08-06T08:05:06.212Z,8.20
2018-08-06T08:06:06.166Z,8.60
2018-08-06T08:07:06.111Z,9.00
2018-08-06T08:08:06.031Z,9.20
2018-08-06T08:09:05.976Z,8.30
2018-08-06T08:10:05.922Z,8.60
2018-08-06T08:11:05.870Z,8.20
2018-08-06T08:12:05.908Z,8.80
2018-08-06T08:13:05.754Z,9.10
2018-08-06T08:14:05.699Z,9.10
2018-08-06T08:15:05.630Z,8.40
2018-08-06T08:16:05.581Z,8.30
2018-08-06T08:17:05.526Z,8.80
2018-08-06T08:18:05.456Z,8.50
2018-08-06T08:19:05.410Z,9.10
2018-08-06T08:20:05.478Z,8.80
2018-08-06T08:21:05.284Z,8.60
2018-08-06T08:22:05.230Z,9.60
2018-08-06T08:23:05.170Z,9.30
2018-08-06T08:24:05.114Z,9.20
2018-08-06T08:25:05.055Z,8.90
2018-08-06T08:26:05.003Z,9.40
2018-08-06T08:27:04.930Z,8.80
2018-08-06T08:28:04.873Z,9.10
2018-08-06T08:29:04.832Z,9.40
2018-08-06T08:30:04.765Z,9.00
